MetarQuiz.com

1 / 10

KJFK 072320Z 36010KT 9000 FEW020 08/02 A3021 RMK AO2 T00800017=